Time;durP1;ratioP1;P1;durP2;ratioP2;P2;SDS_P1;SDS_P2;PMS_P1;PMS_P2;Temp;Humidity;BMP_temperature;BMP_pressure;BME280_temperature;BME280_humidity;BME280_pressure;Samples;Min_cycle;Max_cycle;Signal;HPM_P1;HPM_P2
2023/07/22 00:00:39;;;;;;;5.93;2.08;;;17.60;99.90;;;;;;4870854;29;20148;-81
2023/07/22 00:03:06;;;;;;;5.55;2.20;;;17.60;99.90;;;;;;4886232;29;20045;-82
2023/07/22 00:05:33;;;;;;;4.00;1.90;;;17.50;99.90;;;;;;4868581;29;20053;-82
2023/07/22 00:08:00;;;;;;;2.45;1.85;;;17.60;99.90;;;;;;4869452;29;20053;-81
2023/07/22 00:10:27;;;;;;;4.63;2.15;;;17.50;99.90;;;;;;4869349;29;20130;-82
2023/07/22 00:12:54;;;;;;;5.28;2.25;;;17.50;99.90;;;;;;4872543;29;20049;-81
2023/07/22 00:15:22;;;;;;;2.92;1.83;;;17.50;99.90;;;;;;4869304;29;20045;-81
2023/07/22 00:17:49;;;;;;;2.97;1.60;;;17.50;99.90;;;;;;4868965;29;20516;-82
2023/07/22 00:20:16;;;;;;;3.85;1.80;;;17.50;99.90;;;;;;4883635;29;20077;-82
2023/07/22 00:22:43;;;;;;;3.55;1.90;;;17.50;99.90;;;;;;4882789;29;20060;-81
2023/07/22 00:25:11;;;;;;;5.15;2.10;;;17.40;99.90;;;;;;4868017;29;20060;-81
2023/07/22 00:27:39;;;;;;;2.75;1.58;;;17.40;99.90;;;;;;4886344;29;20053;-82
2023/07/22 00:30:09;;;;;;;3.85;1.85;;;17.40;99.90;;;;;;4873000;29;20061;-82
2023/07/22 00:32:40;;;;;;;;;;;17.40;99.90;;;;;;4871760;29;20418;-81
2023/07/22 00:35:09;;;;;;;2.33;1.75;;;17.40;99.90;;;;;;4865551;29;19970;-82
2023/07/22 00:37:36;;;;;;;2.58;1.75;;;17.40;99.90;;;;;;4882728;29;20057;-81
2023/07/22 00:40:11;;;;;;;2.97;1.85;;;17.30;99.90;;;;;;4869681;29;20056;-82
2023/07/22 00:42:39;;;;;;;2.78;1.73;;;17.20;99.90;;;;;;4875288;29;20498;-82
2023/07/22 00:45:07;;;;;;;5.63;1.77;;;17.20;99.90;;;;;;4866326;29;20491;-80
2023/07/22 00:47:34;;;;;;;4.38;2.03;;;17.20;99.90;;;;;;4886868;29;20073;-83
2023/07/22 00:50:07;;;;;;;4.63;2.10;;;17.20;99.90;;;;;;4866353;29;20053;-82
2023/07/22 00:52:35;;;;;;;3.38;2.00;;;17.20;99.90;;;;;;4869211;29;20053;-84
2023/07/22 00:55:03;;;;;;;2.85;1.98;;;17.20;99.90;;;;;;4868800;29;20115;-82
2023/07/22 00:57:29;;;;;;;3.53;1.98;;;17.20;99.90;;;;;;4872679;29;20049;-82
2023/07/22 00:59:56;;;;;;;4.40;1.90;;;17.20;99.90;;;;;;4866785;29;20049;-83
2023/07/22 01:02:23;;;;;;;3.70;1.50;;;17.20;99.90;;;;;;4881569;29;20049;-81
2023/07/22 01:04:51;;;;;;;3.90;1.90;;;17.20;99.90;;;;;;4867009;29;20050;-84
2023/07/22 01:07:19;;;;;;;2.72;1.75;;;17.20;99.90;;;;;;4866287;29;20509;-82
2023/07/22 01:09:46;;;;;;;2.78;2.20;;;17.20;99.90;;;;;;4882797;29;20494;-81
2023/07/22 01:12:13;;;;;;;5.00;2.30;;;17.10;99.90;;;;;;4870092;29;20106;-82
2023/07/22 01:14:42;;;;;;;2.03;1.58;;;17.10;99.90;;;;;;4867103;29;20045;-81
2023/07/22 01:17:11;;;;;;;3.20;1.63;;;17.10;99.90;;;;;;4868007;29;20046;-81
2023/07/22 01:19:38;;;;;;;3.33;1.73;;;17.10;99.90;;;;;;4867049;29;20045;-82
2023/07/22 01:22:07;;;;;;;4.30;1.63;;;17.10;99.90;;;;;;4864804;29;20071;-83
2023/07/22 01:24:35;;;;;;;4.15;1.80;;;17.10;99.90;;;;;;4867557;29;20053;-81
2023/07/22 01:27:03;;;;;;;4.03;1.92;;;17.10;99.90;;;;;;4880875;29;20105;-81
2023/07/22 01:29:30;;;;;;;4.10;1.80;;;17.00;99.90;;;;;;4867051;29;20096;-82
2023/07/22 01:31:57;;;;;;;4.53;1.80;;;17.10;99.90;;;;;;4866656;29;20069;-81
2023/07/22 01:34:24;;;;;;;4.38;1.80;;;17.00;99.90;;;;;;4865766;29;20474;-84
2023/07/22 01:36:51;;;;;;;3.50;2.25;;;17.00;99.90;;;;;;4880806;29;20050;-81
2023/07/22 01:39:18;;;;;;;4.22;1.95;;;17.00;99.90;;;;;;4881036;29;20052;-81
2023/07/22 01:41:45;;;;;;;3.25;1.63;;;17.00;99.90;;;;;;4869536;29;20050;-83
2023/07/22 01:44:12;;;;;;;2.90;1.80;;;16.90;99.90;;;;;;4863252;29;20110;-82
2023/07/22 01:46:39;;;;;;;3.97;1.80;;;16.90;99.90;;;;;;4879837;29;20057;-81
2023/07/22 01:49:12;;;;;;;5.93;2.03;;;16.90;99.90;;;;;;4867880;29;20052;-82
2023/07/22 01:51:42;;;;;;;9.95;1.80;;;16.90;99.90;;;;;;4881976;29;20069;-82
2023/07/22 01:54:10;;;;;;;3.08;1.80;;;16.90;99.90;;;;;;4865538;29;20076;-81
2023/07/22 01:56:37;;;;;;;10.70;1.90;;;16.90;99.90;;;;;;4869034;29;20055;-82
2023/07/22 01:59:04;;;;;;;5.97;1.75;;;16.80;99.90;;;;;;4868842;29;20055;-82
2023/07/22 02:01:32;;;;;;;3.15;1.90;;;16.80;99.90;;;;;;4879814;29;20065;-81
2023/07/22 02:03:59;;;;;;;3.42;1.70;;;16.80;99.90;;;;;;4865041;29;20051;-82
2023/07/22 02:06:28;;;;;;;5.68;2.08;;;16.80;99.90;;;;;;4864407;29;20045;-81
2023/07/22 02:08:56;;;;;;;2.50;1.77;;;16.70;99.90;;;;;;4866017;29;20502;-81
2023/07/22 02:11:23;;;;;;;3.13;1.90;;;16.80;99.90;;;;;;4866584;29;20080;-82
2023/07/22 02:13:50;;;;;;;3.17;1.80;;;16.70;99.90;;;;;;4881867;29;20055;-81
2023/07/22 02:16:17;;;;;;;3.38;1.70;;;16.70;99.90;;;;;;4864150;29;20042;-81
2023/07/22 02:18:43;;;;;;;2.67;1.83;;;16.70;99.90;;;;;;4878492;29;20094;-81
2023/07/22 02:21:10;;;;;;;6.18;2.17;;;16.70;99.90;;;;;;4863780;29;20442;-81
2023/07/22 02:23:37;;;;;;;2.50;1.83;;;16.70;99.90;;;;;;4863458;29;20502;-81
2023/07/22 02:26:04;;;;;;;4.28;1.80;;;16.70;99.90;;;;;;4859472;29;20157;-81
2023/07/22 02:28:31;;;;;;;5.18;2.72;;;16.70;99.90;;;;;;4864425;29;20133;-81
2023/07/22 02:31:02;;;;;;;3.08;1.98;;;16.70;99.90;;;;;;4864266;29;20049;-81
2023/07/22 02:33:29;;;;;;;2.80;2.08;;;16.70;99.90;;;;;;4861936;29;20053;-81
2023/07/22 02:35:55;;;;;;;5.22;2.03;;;16.60;99.90;;;;;;4863631;29;20068;-82
2023/07/22 02:38:22;;;;;;;2.42;1.85;;;16.60;99.90;;;;;;4861733;29;20101;-82
2023/07/22 02:40:49;;;;;;;3.03;1.98;;;16.60;99.90;;;;;;4863222;29;20053;-81
2023/07/22 02:43:16;;;;;;;4.72;1.67;;;16.60;99.90;;;;;;4866343;29;20045;-82
2023/07/22 02:45:43;;;;;;;5.43;1.90;;;16.60;99.90;;;;;;4866489;29;20137;-82
2023/07/22 02:48:10;;;;;;;3.05;1.60;;;16.60;99.90;;;;;;4865129;29;20049;-81
2023/07/22 02:50:37;;;;;;;5.10;1.90;;;16.50;99.90;;;;;;4864696;29;20054;-81
2023/07/22 02:53:04;;;;;;;2.40;1.38;;;16.50;99.90;;;;;;4868570;29;20580;-82
2023/07/22 02:55:31;;;;;;;3.50;2.10;;;16.50;99.90;;;;;;4877794;29;20053;-81
2023/07/22 02:57:57;;;;;;;3.28;1.80;;;16.50;99.90;;;;;;4867122;29;20110;-81
2023/07/22 03:00:24;;;;;;;3.92;1.50;;;16.50;99.90;;;;;;4862677;29;20549;-82
2023/07/22 03:02:53;;;;;;;1.85;1.42;;;16.40;99.90;;;;;;4878184;29;20057;-81
2023/07/22 03:05:21;;;;;;;3.63;1.80;;;16.50;99.90;;;;;;4880088;29;20462;-81
2023/07/22 03:07:48;;;;;;;3.47;1.73;;;16.40;99.90;;;;;;4866714;29;20053;-81
2023/07/22 03:10:14;;;;;;;2.17;1.55;;;16.40;99.90;;;;;;4865530;29;20667;-81
2023/07/22 03:12:41;;;;;;;3.22;1.70;;;16.40;99.90;;;;;;4880994;29;20053;-82
2023/07/22 03:15:08;;;;;;;6.43;2.17;;;16.40;99.90;;;;;;4866182;29;20085;-82
2023/07/22 03:17:37;;;;;;;4.07;1.83;;;16.40;99.90;;;;;;4864700;29;20481;-81
2023/07/22 03:20:13;;;;;;;6.05;2.05;;;16.40;99.90;;;;;;4881433;29;20108;-81
2023/07/22 03:22:41;;;;;;;5.10;1.77;;;16.40;99.90;;;;;;4881954;29;20109;-80
2023/07/22 03:25:12;;;;;;;3.42;2.28;;;16.30;99.90;;;;;;4861234;29;20060;-81
2023/07/22 03:27:39;;;;;;;3.22;1.90;;;16.30;99.90;;;;;;4868477;29;20080;-81
2023/07/22 03:30:10;;;;;;;4.13;2.08;;;16.30;99.90;;;;;;4865530;29;20484;-82
2023/07/22 03:32:37;;;;;;;3.42;2.22;;;16.30;99.90;;;;;;4862951;29;20077;-81
2023/07/22 03:35:04;;;;;;;3.50;2.42;;;16.30;99.90;;;;;;4866745;29;20060;-82
2023/07/22 03:37:31;;;;;;;3.45;2.13;;;16.20;99.90;;;;;;4868928;29;20080;-82
2023/07/22 03:39:58;;;;;;;3.05;1.70;;;16.20;99.90;;;;;;4866059;29;20045;-82
2023/07/22 03:42:25;;;;;;;2.72;2.00;;;16.20;99.90;;;;;;4882072;29;20098;-81
2023/07/22 03:44:51;;;;;;;2.42;1.83;;;16.20;99.90;;;;;;4865820;29;20049;-82
2023/07/22 03:47:19;;;;;;;2.83;1.58;;;16.20;99.90;;;;;;4863983;29;20052;-82
2023/07/22 03:49:46;;;;;;;3.25;1.80;;;16.20;99.90;;;;;;4880754;29;20076;-83
2023/07/22 03:52:14;;;;;;;3.97;2.40;;;16.10;99.90;;;;;;4868767;29;20074;-82
2023/07/22 03:54:41;;;;;;;4.68;2.25;;;16.10;99.90;;;;;;4865630;29;20577;-82
2023/07/22 03:57:07;;;;;;;3.60;1.92;;;16.10;99.90;;;;;;4866109;29;20074;-82
2023/07/22 03:59:34;;;;;;;6.90;2.35;;;16.10;99.90;;;;;;4865510;29;20510;-81
2023/07/22 04:02:02;;;;;;;4.00;2.38;;;16.10;99.90;;;;;;4864237;29;20053;-82
2023/07/22 04:04:29;;;;;;;2.28;1.88;;;16.10;99.90;;;;;;4863574;29;20078;-80
2023/07/22 04:06:55;;;;;;;3.42;2.08;;;16.10;99.90;;;;;;4870599;29;20108;-82
2023/07/22 04:09:22;;;;;;;2.58;1.83;;;16.10;99.90;;;;;;4863079;29;20053;-80
2023/07/22 04:11:49;;;;;;;3.25;2.17;;;16.10;99.90;;;;;;4881322;29;20057;-82
2023/07/22 04:14:15;;;;;;;2.80;2.10;;;16.10;99.90;;;;;;4864021;29;20501;-82
2023/07/22 04:16:42;;;;;;;3.53;2.30;;;16.10;99.90;;;;;;4881222;29;20118;-82
2023/07/22 04:19:09;;;;;;;7.20;2.25;;;16.10;99.90;;;;;;4864472;29;20041;-82
2023/07/22 04:21:36;;;;;;;4.75;2.10;;;16.10;99.90;;;;;;4867797;29;20470;-82
2023/07/22 04:24:03;;;;;;;3.88;2.22;;;16.10;99.90;;;;;;4862869;29;20053;-81
2023/07/22 04:26:30;;;;;;;2.75;1.80;;;16.10;99.90;;;;;;4865991;29;20105;-81
2023/07/22 04:28:57;;;;;;;4.47;2.30;;;16.10;99.90;;;;;;4868111;29;20049;-81
2023/07/22 04:31:24;;;;;;;3.50;1.60;;;16.10;99.90;;;;;;4868993;29;20056;-81
2023/07/22 04:33:51;;;;;;;1.88;1.55;;;16.10;99.90;;;;;;4869501;29;20065;-80
2023/07/22 04:36:17;;;;;;;5.13;1.90;;;16.10;99.90;;;;;;4870298;29;20046;-81
2023/07/22 04:38:44;;;;;;;3.28;2.15;;;16.10;99.90;;;;;;4867588;29;20049;-82
2023/07/22 04:41:11;;;;;;;4.80;1.60;;;16.10;99.90;;;;;;4867212;29;20046;-82
2023/07/22 04:43:40;;;;;;;4.30;2.15;;;16.10;99.90;;;;;;4867024;29;20475;-83
2023/07/22 04:46:07;;;;;;;3.33;2.03;;;16.10;99.90;;;;;;4882240;29;20053;-81
2023/07/22 04:48:34;;;;;;;3.47;2.08;;;16.20;99.90;;;;;;4864089;29;20126;-81
2023/07/22 04:51:00;;;;;;;2.45;2.10;;;16.20;99.90;;;;;;4867365;29;20053;-82
2023/07/22 04:53:27;;;;;;;3.17;1.90;;;16.20;99.90;;;;;;4877600;29;20102;-81
2023/07/22 04:55:55;;;;;;;4.85;2.15;;;16.20;99.90;;;;;;4864081;29;20045;-81
2023/07/22 04:58:21;;;;;;;3.83;1.95;;;16.30;99.90;;;;;;4863501;29;20591;-81
2023/07/22 05:00:48;;;;;;;3.78;1.80;;;16.30;99.90;;;;;;4867528;29;20156;-80
2023/07/22 05:03:15;;;;;;;2.33;1.48;;;16.40;99.90;;;;;;4863806;29;20092;-82
2023/07/22 05:05:43;;;;;;;3.45;1.73;;;16.50;99.90;;;;;;4870922;29;20057;-80
2023/07/22 05:08:10;;;;;;;4.43;2.10;;;16.60;99.90;;;;;;4868867;29;20067;-81
2023/07/22 05:10:37;;;;;;;2.72;1.77;;;16.70;99.90;;;;;;4863974;29;20106;-82
2023/07/22 05:13:05;;;;;;;5.35;1.90;;;16.90;99.90;;;;;;4868946;29;20150;-81
2023/07/22 05:15:31;;;;;;;2.83;1.73;;;17.00;99.90;;;;;;4872638;29;20056;-82
2023/07/22 05:17:58;;;;;;;2.72;1.55;;;17.10;99.90;;;;;;4875596;29;20049;-82
2023/07/22 05:20:25;;;;;;;4.25;1.70;;;17.30;99.90;;;;;;4869604;29;20150;-84
2023/07/22 05:22:52;;;;;;;10.50;2.35;;;17.40;99.90;;;;;;4883092;29;20078;-82
2023/07/22 05:25:19;;;;;;;2.70;1.65;;;17.50;99.90;;;;;;4868246;29;20053;-82
2023/07/22 05:27:45;;;;;;;3.03;1.85;;;17.60;99.90;;;;;;4866909;29;20073;-83
2023/07/22 05:30:12;;;;;;;1.98;1.60;;;17.70;99.90;;;;;;4873040;29;20048;-82
2023/07/22 05:32:58;;;;;;;4.47;1.80;;;17.80;99.90;;;;;;4869823;29;20076;-81
2023/07/22 05:35:25;;;;;;;3.70;1.60;;;17.90;99.90;;;;;;4871429;29;20049;-82
2023/07/22 05:37:52;;;;;;;3.65;1.33;;;17.90;99.90;;;;;;4872355;29;20049;-82
2023/07/22 05:40:19;;;;;;;3.50;1.73;;;18.00;99.90;;;;;;4885235;29;20057;-82
2023/07/22 05:42:46;;;;;;;3.78;1.70;;;18.00;99.90;;;;;;4865685;29;20060;-81
2023/07/22 05:45:15;;;;;;;6.80;1.80;;;18.10;99.90;;;;;;4871247;29;20504;-82
2023/07/22 05:47:42;;;;;;;4.32;2.33;;;18.10;99.90;;;;;;4868550;29;20064;-81
2023/07/22 05:50:09;;;;;;;7.22;2.30;;;18.10;99.90;;;;;;4881811;29;20474;-83
2023/07/22 05:52:36;;;;;;;2.30;1.85;;;18.10;99.90;;;;;;4864703;29;20060;-82
2023/07/22 05:55:04;;;;;;;6.43;1.90;;;18.20;99.90;;;;;;4880190;29;20052;-82
2023/07/22 05:57:31;;;;;;;3.03;1.80;;;18.20;99.90;;;;;;4865825;29;20053;-83
2023/07/22 05:59:58;;;;;;;3.17;1.80;;;18.20;99.90;;;;;;4871333;29;20049;-82
2023/07/22 06:02:34;;;;;;;3.80;2.05;;;18.20;99.90;;;;;;4878596;29;20160;-82
2023/07/22 06:05:01;;;;;;;3.28;1.67;;;18.20;99.90;;;;;;4868856;29;20123;-82
2023/07/22 06:07:28;;;;;;;4.43;2.08;;;18.20;99.90;;;;;;4866897;29;20049;-82
2023/07/22 06:09:55;;;;;;;3.47;1.83;;;18.20;99.90;;;;;;4865202;29;20075;-82
2023/07/22 06:12:22;;;;;;;3.80;1.50;;;18.20;99.90;;;;;;4865603;29;20110;-82
2023/07/22 06:14:49;;;;;;;2.30;1.77;;;18.30;99.90;;;;;;4869220;29;20057;-81
2023/07/22 06:17:16;;;;;;;3.22;1.85;;;18.30;99.90;;;;;;4868416;29;20052;-81
2023/07/22 06:19:43;;;;;;;2.97;2.10;;;18.30;99.90;;;;;;4868526;29;20056;-82
2023/07/22 06:22:10;;;;;;;4.80;2.45;;;18.40;99.90;;;;;;4868684;29;20093;-82
2023/07/22 06:24:37;;;;;;;3.53;2.25;;;18.40;99.90;;;;;;4880063;29;20045;-82
2023/07/22 06:27:04;;;;;;;4.93;2.33;;;18.40;99.90;;;;;;4864816;29;20048;-83
2023/07/22 06:29:30;;;;;;;3.35;1.88;;;18.50;99.90;;;;;;4868300;29;20053;-82
2023/07/22 06:31:57;;;;;;;2.90;2.00;;;18.50;99.90;;;;;;4869387;29;20053;-81
2023/07/22 06:34:24;;;;;;;6.20;1.95;;;18.50;99.90;;;;;;4863630;29;20057;-82
2023/07/22 06:36:51;;;;;;;3.58;1.80;;;18.60;99.90;;;;;;4867465;29;20050;-82
2023/07/22 06:39:17;;;;;;;4.30;1.90;;;18.60;99.90;;;;;;4864433;29;20046;-81
2023/07/22 06:41:44;;;;;;;6.53;2.00;;;18.70;99.90;;;;;;4862526;29;20061;-83
2023/07/22 06:44:11;;;;;;;4.78;1.75;;;18.70;99.90;;;;;;4866212;29;20057;-82
2023/07/22 06:46:37;;;;;;;2.95;1.85;;;18.80;99.90;;;;;;4866032;29;20517;-82
2023/07/22 06:49:04;;;;;;;3.28;2.40;;;18.80;99.90;;;;;;4879078;29;20059;-82
2023/07/22 06:51:31;;;;;;;5.10;1.60;;;18.90;99.90;;;;;;4864880;29;20057;-80
2023/07/22 06:53:58;;;;;;;2.40;1.55;;;18.90;99.90;;;;;;4863738;29;20053;-81
2023/07/22 06:56:26;;;;;;;3.75;1.58;;;19.00;99.90;;;;;;4878386;29;20041;-81
2023/07/22 06:58:52;;;;;;;3.33;1.50;;;19.10;99.90;;;;;;4878508;29;20052;-81
2023/07/22 07:01:19;;;;;;;3.33;1.80;;;19.10;99.90;;;;;;4867435;29;20045;-81
2023/07/22 07:03:46;;;;;;;2.70;1.85;;;19.20;99.90;;;;;;4860552;29;20395;-81
2023/07/22 07:06:13;;;;;;;4.32;1.90;;;19.20;99.90;;;;;;4865548;29;20092;-83
2023/07/22 07:08:40;;;;;;;4.30;2.45;;;19.30;99.90;;;;;;4863494;29;20065;-82
2023/07/22 07:11:06;;;;;;;3.47;1.80;;;19.30;99.90;;;;;;4864686;29;20048;-81
2023/07/22 07:13:33;;;;;;;4.85;1.58;;;19.40;99.90;;;;;;4879115;29;20053;-84
2023/07/22 07:16:27;;;;;;;4.95;1.67;;;19.40;99.90;;;;;;4864609;29;20422;-81
2023/07/22 07:18:55;;;;;;;3.30;1.73;;;19.50;99.90;;;;;;4857580;29;20053;-81
2023/07/22 07:21:22;;;;;;;3.58;1.80;;;19.50;99.90;;;;;;4858314;29;20135;-81
2023/07/22 07:23:50;;;;;;;2.33;1.50;;;19.50;99.90;;;;;;4868235;29;20132;-81
2023/07/22 07:26:17;;;;;;;2.80;1.60;;;19.50;99.90;;;;;;4856874;29;20064;-81
2023/07/22 07:28:44;;;;;;;8.57;2.00;;;19.60;99.90;;;;;;4856661;29;20406;-82
2023/07/22 07:31:11;;;;;;;2.40;1.83;;;19.60;99.90;;;;;;4858613;29;20082;-81
2023/07/22 07:33:38;;;;;;;3.55;2.00;;;19.60;99.90;;;;;;4856695;29;20057;-81
2023/07/22 07:36:05;;;;;;;3.25;2.20;;;19.70;99.90;;;;;;4873701;29;20057;-82
2023/07/22 07:38:32;;;;;;;4.95;2.45;;;19.80;99.90;;;;;;4858167;29;20109;-81
2023/07/22 07:41:01;;;;;;;4.10;1.70;;;19.80;99.90;;;;;;4858052;29;20065;-81
2023/07/22 07:43:28;;;;;;;2.85;1.63;;;19.80;99.90;;;;;;4860553;29;20057;-81
2023/07/22 07:46:20;;;;;;;6.55;2.10;;;19.80;99.90;;;;;;4871508;29;20057;-82
2023/07/22 07:48:48;;;;;;;6.18;1.98;;;19.90;99.90;;;;;;4872155;29;20079;-82
2023/07/22 07:51:16;;;;;;;4.38;2.00;;;19.90;99.90;;;;;;4860555;29;20083;-81
2023/07/22 07:53:44;;;;;;;4.45;1.58;;;20.00;99.90;;;;;;4857382;29;20429;-84
2023/07/22 07:56:11;;;;;;;3.67;1.50;;;20.00;99.90;;;;;;4855374;29;20050;-81
2023/07/22 07:58:39;;;;;;;4.05;1.75;;;20.00;99.90;;;;;;4860732;29;20430;-81
2023/07/22 08:01:06;;;;;;;4.35;1.73;;;20.10;99.90;;;;;;4861077;29;20070;-81
2023/07/22 08:03:34;;;;;;;2.70;1.75;;;20.10;99.90;;;;;;4859408;29;20152;-81
2023/07/22 08:06:02;;;;;;;2.75;1.70;;;20.20;99.90;;;;;;4863799;29;20540;-82
2023/07/22 08:08:29;;;;;;;2.40;1.80;;;20.20;99.90;;;;;;4864890;29;20049;-81
2023/07/22 08:11:04;;;;;;;2.13;1.67;;;20.20;99.90;;;;;;4862428;29;20056;-81
2023/07/22 08:13:31;;;;;;;3.58;1.70;;;20.20;99.90;;;;;;4862588;29;20056;-81
2023/07/22 08:15:58;;;;;;;4.40;1.80;;;20.30;99.90;;;;;;4863372;29;20053;-82
2023/07/22 08:18:25;;;;;;;3.13;1.60;;;20.40;99.90;;;;;;4863338;29;20101;-81
2023/07/22 08:20:55;;;;;;;2.88;1.58;;;20.40;99.90;;;;;;4864487;29;20045;-81
2023/07/22 08:23:22;;;;;;;3.67;1.95;;;20.40;99.90;;;;;;4864314;29;20045;-81
2023/07/22 08:25:49;;;;;;;1.77;1.30;;;20.40;99.90;;;;;;4864431;29;20049;-81
2023/07/22 08:28:16;;;;;;;3.25;1.70;;;20.50;99.90;;;;;;4863445;29;20471;-83
2023/07/22 08:30:44;;;;;;;2.60;1.40;;;20.50;99.90;;;;;;4863724;29;20060;-81
2023/07/22 08:33:11;;;;;;;3.42;1.42;;;20.60;99.90;;;;;;4862557;29;20140;-81
2023/07/22 08:35:40;;;;;;;3.10;2.00;;;20.60;99.90;;;;;;4864272;29;20050;-82
2023/07/22 08:38:08;;;;;;;2.72;1.52;;;20.60;99.90;;;;;;4862297;29;20148;-82
2023/07/22 08:40:36;;;;;;;3.50;1.40;;;20.70;99.90;;;;;;4862687;29;20510;-83
2023/07/22 08:43:04;;;;;;;3.70;1.45;;;20.70;99.90;;;;;;4860613;29;20053;-81
2023/07/22 08:45:36;;;;;;;5.78;1.90;;;20.80;99.90;;;;;;4860648;29;20057;-80
2023/07/22 08:48:09;;;;;;;2.03;1.52;;;20.80;99.90;;;;;;4863982;29;20062;-83
2023/07/22 08:50:45;;;;;;;3.35;1.83;;;20.80;99.90;;;;;;4862571;29;20108;-81
2023/07/22 08:53:13;;;;;;;2.28;1.30;;;20.80;99.90;;;;;;4858631;29;20068;-81
2023/07/22 08:55:40;;;;;;;2.65;1.85;;;20.90;99.90;;;;;;4863723;29;20138;-81
2023/07/22 08:58:09;;;;;;;3.08;1.90;;;20.90;99.90;;;;;;4878702;29;20053;-79
2023/07/22 09:00:38;;;;;;;4.60;2.00;;;21.00;99.90;;;;;;4865295;29;20053;-80
2023/07/22 09:03:05;;;;;;;3.45;1.92;;;21.00;99.90;;;;;;4862276;29;20401;-79
2023/07/22 09:05:34;;;;;;;2.05;1.65;;;21.10;99.90;;;;;;4862593;29;20053;-81
2023/07/22 09:08:06;;;;;;;3.78;1.52;;;21.10;99.90;;;;;;4863414;29;20446;-81
2023/07/22 09:10:33;;;;;;;5.03;1.80;;;21.20;99.90;;;;;;4862718;29;20123;-79
2023/07/22 09:13:01;;;;;;;3.15;1.50;;;21.20;99.90;;;;;;4876955;29;20501;-82
2023/07/22 09:15:28;;;;;;;5.90;2.00;;;21.30;99.90;;;;;;4859180;29;20045;-81
2023/07/22 09:17:55;;;;;;;2.08;1.33;;;21.40;99.90;;;;;;4862859;29;20053;-80
2023/07/22 09:20:22;;;;;;;3.92;1.27;;;21.50;99.90;;;;;;4861734;29;20084;-81
2023/07/22 09:22:51;;;;;;;3.53;1.75;;;21.60;99.90;;;;;;4861597;29;20060;-79
2023/07/22 09:25:37;;;;;;;5.18;1.77;;;21.80;99.90;;;;;;4858660;29;20140;-83
2023/07/22 09:28:04;;;;;;;3.33;1.70;;;21.90;99.90;;;;;;4862933;29;20054;-81
2023/07/22 09:30:34;;;;;;;5.53;1.88;;;22.00;99.90;;;;;;4878688;29;20113;-81
2023/07/22 09:33:03;;;;;;;1.60;1.00;;;22.10;99.90;;;;;;4882090;29;20053;-81
2023/07/22 09:35:45;;;;;;;3.45;0.93;;;22.20;99.90;;;;;;4864375;29;20068;-82
2023/07/22 09:38:13;;;;;;;1.48;0.90;;;22.30;99.90;;;;;;4869154;29;20719;-80
2023/07/22 09:40:41;;;;;;;3.00;1.05;;;22.50;99.90;;;;;;4869631;29;20073;-80
2023/07/22 09:43:12;;;;;;;2.70;1.08;;;22.60;99.90;;;;;;4865579;29;20052;-80
2023/07/22 09:45:38;;;;;;;1.10;1.00;;;22.60;99.90;;;;;;4862963;29;20060;-80
2023/07/22 09:48:08;;;;;;;1.75;0.90;;;22.70;99.90;;;;;;4864108;29;20057;-81
2023/07/22 09:50:36;;;;;;;1.60;1.10;;;22.70;99.90;;;;;;4876785;29;20050;-81
2023/07/22 09:53:04;;;;;;;1.45;0.80;;;22.70;99.90;;;;;;4867414;29;20058;-81
2023/07/22 09:55:32;;;;;;;4.78;0.90;;;22.70;99.90;;;;;;4864960;29;20052;-80
2023/07/22 09:58:01;;;;;;;1.58;1.00;;;22.70;99.90;;;;;;4865774;29;20053;-80
2023/07/22 10:00:30;;;;;;;1.20;0.88;;;22.70;99.90;;;;;;4863603;29;20546;-80
2023/07/22 10:02:58;;;;;;;2.03;1.00;;;22.70;99.90;;;;;;4861264;29;20060;-81
2023/07/22 10:05:26;;;;;;;2.22;1.02;;;22.70;99.90;;;;;;4857742;29;20078;-80
2023/07/22 10:07:57;;;;;;;2.45;1.20;;;22.70;99.90;;;;;;4860210;29;20433;-80
2023/07/22 10:10:29;;;;;;;1.80;1.00;;;22.70;99.90;;;;;;4865595;29;20053;-81
2023/07/22 10:12:57;;;;;;;1.55;0.90;;;22.70;99.90;;;;;;4863227;29;20102;-80
2023/07/22 10:15:28;;;;;;;1.58;1.05;;;22.70;99.90;;;;;;4855903;29;20409;-80
2023/07/22 10:17:56;;;;;;;1.60;0.93;;;22.70;99.90;;;;;;4858489;29;20073;-80
2023/07/22 10:20:24;;;;;;;3.28;0.85;;;22.70;99.90;;;;;;4859577;29;20395;-80
2023/07/22 10:22:51;;;;;;;4.60;1.20;;;22.70;99.90;;;;;;4857832;29;20049;-79
2023/07/22 10:25:19;;;;;;;3.25;1.10;;;22.70;99.90;;;;;;4897070;23;20060;-76
2023/07/22 10:27:48;;;;;;;2.35;0.93;;;22.80;99.90;;;;;;4905095;29;20052;-77
2023/07/22 10:30:16;;;;;;;2.42;1.10;;;22.80;99.90;;;;;;4903107;29;20098;-77
2023/07/22 10:32:51;;;;;;;2.63;1.50;;;22.90;99.90;;;;;;4902573;29;20053;-77
2023/07/22 10:35:30;;;;;;;2.45;1.40;;;22.90;99.90;;;;;;4905146;29;20048;-77
2023/07/22 10:38:11;;;;;;;4.68;2.03;;;23.00;99.90;;;;;;4904513;29;20076;-77
2023/07/22 10:40:57;;;;;;;3.67;1.00;;;23.10;99.90;;;;;;4901832;29;20048;-77
2023/07/22 10:43:31;;;;;;;1.73;1.08;;;23.20;99.90;;;;;;4910156;29;20500;-78
2023/07/22 10:46:04;;;;;;;1.73;1.20;;;23.30;99.90;;;;;;4907877;29;20055;-77
2023/07/22 10:48:36;;;;;;;2.63;1.10;;;23.30;99.90;;;;;;4910163;29;20119;-78
2023/07/22 10:51:11;;;;;;;3.40;1.70;;;23.30;99.90;;;;;;4912743;29;20052;-77
2023/07/22 10:53:46;;;;;;;4.88;1.30;;;23.30;99.90;;;;;;4909561;29;20052;-77
2023/07/22 10:56:18;;;;;;;2.20;1.20;;;23.30;99.90;;;;;;4915449;29;20127;-78
2023/07/22 10:58:46;;;;;;;2.22;1.25;;;23.30;99.90;;;;;;4909242;29;20060;-78
2023/07/22 11:01:33;;;;;;;3.63;2.10;;;23.20;99.90;;;;;;4907668;29;20142;-78
2023/07/22 11:04:31;;;;;;;3.20;1.50;;;23.20;99.90;;;;;;4914692;29;20052;-77
2023/07/22 11:07:33;;;;;;;2.63;1.55;;;23.20;99.90;;;;;;4909737;29;20451;-77
2023/07/22 11:10:16;;;;;;;1.85;1.20;;;23.40;99.90;;;;;;4902366;29;20104;-78
2023/07/22 11:12:44;;;;;;;3.92;1.17;;;23.40;99.90;;;;;;4920465;29;20461;-78
2023/07/22 11:15:15;;;;;;;1.60;1.30;;;23.50;99.90;;;;;;4909989;29;20115;-77
2023/07/22 11:17:42;;;;;;;1.63;1.17;;;23.50;99.90;;;;;;4913222;29;20120;-78
2023/07/22 11:20:09;;;;;;;1.25;0.95;;;23.60;99.90;;;;;;4913029;29;20048;-78
2023/07/22 11:22:40;;;;;;;1.42;1.15;;;23.70;99.90;;;;;;4914460;29;20100;-78
2023/07/22 11:25:07;;;;;;;1.75;1.00;;;23.80;99.90;;;;;;4918430;29;20059;-78
2023/07/22 11:27:34;;;;;;;2.22;1.10;;;23.90;99.90;;;;;;4907056;29;20051;-77
2023/07/22 11:30:03;;;;;;;3.08;1.20;;;23.90;99.90;;;;;;4906521;29;20496;-78
2023/07/22 11:32:32;;;;;;;2.00;1.13;;;24.00;99.90;;;;;;4911720;29;20048;-77
2023/07/22 11:34:59;;;;;;;1.38;0.90;;;24.00;99.90;;;;;;4910500;29;20059;-78
2023/07/22 11:37:28;;;;;;;1.10;0.98;;;24.10;99.90;;;;;;4909053;29;20530;-77
2023/07/22 11:40:00;;;;;;;3.33;0.93;;;24.10;99.90;;;;;;4912245;29;20048;-77
2023/07/22 11:42:28;;;;;;;2.60;1.23;;;24.00;99.90;;;;;;4909438;29;20056;-77
2023/07/22 11:44:55;;;;;;;1.83;1.38;;;24.10;99.90;;;;;;4908776;29;20052;-78
2023/07/22 11:47:29;;;;;;;4.63;1.10;;;24.10;99.90;;;;;;4913869;29;20102;-77
2023/07/22 11:49:56;;;;;;;3.10;1.20;;;24.10;99.90;;;;;;4908152;29;20053;-78
2023/07/22 11:52:23;;;;;;;2.35;1.20;;;24.00;99.90;;;;;;4911483;29;20051;-77
2023/07/22 11:54:50;;;;;;;2.60;1.20;;;24.00;99.90;;;;;;4909086;29;20068;-78
2023/07/22 11:57:18;;;;;;;2.53;1.15;;;24.00;99.90;;;;;;4909019;29;20049;-77
2023/07/22 11:59:46;;;;;;;2.25;1.20;;;24.10;99.90;;;;;;4909638;29;20460;-77
2023/07/22 12:02:15;;;;;;;2.20;1.45;;;24.00;99.90;;;;;;4910962;29;20100;-77
2023/07/22 12:04:41;;;;;;;1.60;1.30;;;24.10;99.90;;;;;;4908386;29;20080;-78
2023/07/22 12:07:26;;;;;;;3.15;1.73;;;24.10;99.90;;;;;;4908804;29;20055;-78
2023/07/22 12:09:55;;;;;;;4.13;1.33;;;24.10;99.90;;;;;;4910724;29;20063;-78
2023/07/22 12:12:35;;;;;;;1.77;1.20;;;24.20;99.90;;;;;;4911097;29;20049;-78
2023/07/22 12:15:04;;;;;;;4.28;1.88;;;24.30;99.90;;;;;;4911262;29;20056;-78
2023/07/22 12:17:44;;;;;;;2.38;1.13;;;24.30;99.90;;;;;;4909149;29;20048;-77
2023/07/22 12:20:11;;;;;;;2.75;1.23;;;24.30;99.90;;;;;;4913443;29;20060;-78
2023/07/22 12:22:38;;;;;;;1.45;1.00;;;24.40;99.90;;;;;;4910317;29;20480;-78
2023/07/22 12:25:06;;;;;;;1.35;1.13;;;24.40;99.90;;;;;;4913152;29;20523;-78
2023/07/22 12:27:32;;;;;;;1.63;1.00;;;24.50;99.90;;;;;;4910484;29;20059;-77
2023/07/22 12:29:59;;;;;;;1.73;1.30;;;24.50;99.90;;;;;;4909467;29;20052;-78
2023/07/22 12:32:26;;;;;;;2.47;1.75;;;24.50;99.90;;;;;;4912219;29;20504;-78
2023/07/22 12:34:53;;;;;;;3.17;2.00;;;24.50;99.90;;;;;;4912020;29;20060;-78
2023/07/22 12:37:19;;;;;;;11.95;7.70;;;24.50;99.90;;;;;;4912126;29;20056;-77
2023/07/22 12:39:46;;;;;;;3.85;2.55;;;24.50;99.90;;;;;;4908174;29;20060;-77
2023/07/22 12:42:13;;;;;;;7.15;5.70;;;24.50;99.90;;;;;;4907877;29;20052;-77
2023/07/22 12:44:39;;;;;;;10.15;5.78;;;24.50;99.90;;;;;;4910459;29;20132;-78
2023/07/22 12:47:07;;;;;;;8.50;6.88;;;24.50;99.90;;;;;;4909307;29;20057;-77
2023/07/22 12:49:34;;;;;;;33.40;24.98;;;24.60;99.90;;;;;;4908462;29;20421;-78
2023/07/22 12:52:04;;;;;;;8.48;5.50;;;24.50;99.90;;;;;;4910379;29;20048;-78
2023/07/22 12:54:31;;;;;;;9.82;7.65;;;24.50;99.90;;;;;;4909871;29;20052;-78